地図

経路データ

SID SEASON NUMBER BASIN SUBBASIN NAME ISO_TIME NATURE LAT LON WMO_WIND WMO_PRES WMO_AGENCY TRACK_TYPE DIST2LAND LANDFALL IFLAG USA_AGENCY USA_ATCF_ID USA_LAT USA_LON USA_RECORD USA_STATUS USA_WIND USA_PRES USA_SSHS USA_R34_NE USA_R34_SE USA_R34_SW USA_R34_NW USA_R50_NE USA_R50_SE USA_R50_SW USA_R50_NW USA_R64_NE USA_R64_SE USA_R64_SW USA_R64_NW USA_POCI USA_ROCI USA_RMW USA_EYE TOKYO_LAT TOKYO_LON TOKYO_GRADE TOKYO_WIND TOKYO_PRES TOKYO_R50_DIR TOKYO_R50_LONG TOKYO_R50_SHORT TOKYO_R30_DIR TOKYO_R30_LONG TOKYO_R30_SHORT TOKYO_LAND CMA_LAT CMA_LON CMA_CAT CMA_WIND CMA_PRES HKO_LAT HKO_LON HKO_CAT HKO_WIND HKO_PRES NEWDELHI_LAT NEWDELHI_LON NEWDELHI_GRADE NEWDELHI_WIND NEWDELHI_PRES NEWDELHI_CI NEWDELHI_DP NEWDELHI_POCI REUNION_LAT REUNION_LON REUNION_TYPE REUNION_WIND REUNION_PRES REUNION_TNUM REUNION_CI REUNION_RMW REUNION_R34_NE REUNION_R34_SE REUNION_R34_SW REUNION_R34_NW REUNION_R50_NE REUNION_R50_SE REUNION_R50_SW REUNION_R50_NW REUNION_R64_NE REUNION_R64_SE REUNION_R64_SW REUNION_R64_NW BOM_LAT BOM_LON BOM_TYPE BOM_WIND BOM_PRES BOM_TNUM BOM_CI BOM_RMW BOM_R34_NE BOM_R34_SE BOM_R34_SW BOM_R34_NW BOM_R50_NE BOM_R50_SE BOM_R50_SW BOM_R50_NW BOM_R64_NE BOM_R64_SE BOM_R64_SW BOM_R64_NW BOM_ROCI BOM_POCI BOM_EYE BOM_POS_METHOD BOM_PRES_METHOD NADI_LAT NADI_LON NADI_CAT NADI_WIND NADI_PRES WELLINGTON_LAT WELLINGTON_LON WELLINGTON_WIND WELLINGTON_PRES DS824_LAT DS824_LON DS824_STAGE DS824_WIND DS824_PRES TD9636_LAT TD9636_LON TD9636_STAGE TD9636_WIND TD9636_PRES TD9635_LAT TD9635_LON TD9635_WIND TD9635_PRES TD9635_ROCI NEUMANN_LAT NEUMANN_LON NEUMANN_CLASS NEUMANN_WIND NEUMANN_PRES MLC_LAT MLC_LON MLC_CLASS MLC_WIND MLC_PRES USA_GUST BOM_GUST BOM_GUST_PER REUNION_GUST REUNION_GUST_PER USA_SEAHGT USA_SEARAD_NE USA_SEARAD_SE USA_SEARAD_SW USA_SEARAD_NW STORM_SPEED STORM_DIR
1865101S09076 1865 10 SI MM NOT_NAMED 1865-04-11 06:00:00 NR -9.40000 76.1000 reunion main 1785 1785 _____O________ -1 -9.40000 76.1000 99 9.90000 5 221
1865101S09076 1865 10 SI MM NOT_NAMED 1865-04-11 09:00:00 NR -9.59063 75.9317 main 1813 1813 _____P________ -1 -9.59063 75.9317 99 5 221
1865101S09076 1865 10 SI MM NOT_NAMED 1865-04-11 12:00:00 NR -9.78449 75.7627 main 1837 1837 _____P________ -1 -9.78449 75.7627 99 5 220
1865101S09076 1865 10 SI MM NOT_NAMED 1865-04-11 15:00:00 NR -9.98487 75.5923 main 1865 1865 _____P________ -1 -9.98487 75.5923 99 5 220
1865101S09076 1865 10 SI MM NOT_NAMED 1865-04-11 18:00:00 NR -10.1951 75.4201 main 1893 1893 _____P________ -1 -10.1951 75.4201 99 6 218
1865101S09076 1865 10 SI MM NOT_NAMED 1865-04-11 21:00:00 NR -10.4184 75.2453 main 1921 1921 _____P________ -1 -10.4184 75.2453 99 6 217
1865101S09076 1865 10 SI MM NOT_NAMED 1865-04-12 00:00:00 NR -10.6581 75.0675 main 1957 1957 _____P________ -1 -10.6581 75.0675 99 6 215
1865101S09076 1865 10 SI MM NOT_NAMED 1865-04-12 03:00:00 NR -10.9175 74.8859 main 1985 1985 _____P________ -1 -10.9175 74.8859 99 7 214
1865101S09076 1865 10 SI MM NOT_NAMED 1865-04-12 06:00:00 NR -11.2000 74.7000 reunion main 2024 2024 _____O________ -1 -11.2000 74.7000 99 9.90000 7 212
1865101S09076 1865 10 SI MM NOT_NAMED 1865-04-12 09:00:00 NR -11.5078 74.5095 main 2037 2001 _____P________ -1 -11.5078 74.5095 99 7 210
1865101S09076 1865 10 SI MM NOT_NAMED 1865-04-12 12:00:00 NR -11.8396 74.3160 main 2001 1960 _____P________ -1 -11.8396 74.3160 99 8 209
1865101S09076 1865 10 SI MM NOT_NAMED 1865-04-12 15:00:00 NR -12.1930 74.1213 main 1960 1925 _____P________ -1 -12.1930 74.1213 99 8 208
1865101S09076 1865 10 SI MM NOT_NAMED 1865-04-12 18:00:00 NR -12.5654 73.9275 main 1919 1884 _____P________ -1 -12.5654 73.9275 99 9 206
1865101S09076 1865 10 SI MM NOT_NAMED 1865-04-12 21:00:00 NR -12.9547 73.7364 main 1879 1854 _____P________ -1 -12.9547 73.7364 99 9 205
1865101S09076 1865 10 SI MM NOT_NAMED 1865-04-13 00:00:00 NR -13.3585 73.5502 main 1849 1809 _____P________ -1 -13.3585 73.5502 99 9 203
1865101S09076 1865 10 SI MM NOT_NAMED 1865-04-13 03:00:00 NR -13.7743 73.3707 main 1809 1771 _____P________ -1 -13.7743 73.3707 99 9 202
1865101S09076 1865 10 SI MM NOT_NAMED 1865-04-13 06:00:00 NR -14.2000 73.2000 reunion main 1771 1733 _____O________ -1 -14.2000 73.2000 99 9.90000 9 201
1865101S09076 1865 10 SI MM NOT_NAMED 1865-04-13 09:00:00 NR -14.6202 73.0287 main 1733 1705 _____P________ -1 -14.6202 73.0287 99 9 201
1865101S09076 1865 10 SI MM NOT_NAMED 1865-04-13 12:00:00 NR -15.0528 72.8640 main 1701 1664 _____P________ -1 -15.0528 72.8640 99 9 199
1865101S09076 1865 10 SI MM NOT_NAMED 1865-04-13 15:00:00 NR -15.4960 72.7075 main 1664 1639 _____P________ -1 -15.4960 72.7075 99 9 198
1865101S09076 1865 10 SI MM NOT_NAMED 1865-04-13 18:00:00 NR -15.9476 72.5606 main 1639 1600 _____P________ -1 -15.9476 72.5606 99 10 197
1865101S09076 1865 10 SI MM NOT_NAMED 1865-04-13 21:00:00 NR -16.4058 72.4248 main 1600 1577 _____P________ -1 -16.4058 72.4248 99 10 195
1865101S09076 1865 10 SI MM NOT_NAMED 1865-04-14 00:00:00 NR -16.8686 72.3017 main 1574 1551 _____P________ -1 -16.8686 72.3017 99 10 193
1865101S09076 1865 10 SI MM NOT_NAMED 1865-04-14 03:00:00 NR -17.3340 72.1929 main 1551 1528 _____P________ -1 -17.3340 72.1929 99 10 192
1865101S09076 1865 10 SI MM NOT_NAMED 1865-04-14 06:00:00 NR -17.8000 72.1000 reunion main 1528 1506 _____O________ -1 -17.8000 72.1000 99 9.90000 10 190
1865101S09076 1865 10 SI MM NOT_NAMED 1865-04-14 09:00:00 NR -18.2977 72.0190 main 1506 1496 _____P________ -1 -18.2977 72.0190 99 10 188
1865101S09076 1865 10 SI MM NOT_NAMED 1865-04-14 12:00:00 NR -18.8025 71.9544 main 1496 1478 _____P________ -1 -18.8025 71.9544 99 10 186
1865101S09076 1865 10 SI MM NOT_NAMED 1865-04-14 15:00:00 NR -19.3059 71.9042 main 1478 1473 _____P________ -1 -19.3059 71.9042 99 10 185
1865101S09076 1865 10 SI MM NOT_NAMED 1865-04-14 18:00:00 NR -19.7993 71.8664 main 1473 1459 _____P________ -1 -19.7993 71.8664 99 10 183
1865101S09076 1865 10 SI MM NOT_NAMED 1865-04-14 21:00:00 NR -20.2741 71.8391 main 1459 1458 _____P________ -1 -20.2741 71.8391 99 9 182
1865101S09076 1865 10 SI MM NOT_NAMED 1865-04-15 00:00:00 NR -20.7215 71.8203 main 1458 1458 _____P________ -1 -20.7215 71.8203 99 9 182
1865101S09076 1865 10 SI MM NOT_NAMED 1865-04-15 03:00:00 NR -21.1330 71.8079 main 1458 1458 _____P________ -1 -21.1330 71.8079 99 8 0
1865101S09076 1865 10 SI MM NOT_NAMED 1865-04-15 06:00:00 NR -21.5000 71.8000 reunion main 1459 1459 _____O________ -1 -21.5000 71.8000 99 9.90000 7 0
1865101S09076 1865 10 SI MM NOT_NAMED 1865-04-15 09:00:00 NR -21.8163 71.7947 main 1461 1461 _____P________ -1 -21.8163 71.7947 99 6 0
1865101S09076 1865 10 SI MM NOT_NAMED 1865-04-15 12:00:00 NR -22.0860 71.7916 main 1464 1464 _____P________ -1 -22.0860 71.7916 99 5 0
1865101S09076 1865 10 SI MM NOT_NAMED 1865-04-15 15:00:00 NR -22.3159 71.7902 main 1466 1466 _____P________ -1 -22.3159 71.7902 99 4 0
1865101S09076 1865 10 SI MM NOT_NAMED 1865-04-15 18:00:00 NR -22.5126 71.7904 main 1469 1469 _____P________ -1 -22.5126 71.7904 99 4 178
1865101S09076 1865 10 SI MM NOT_NAMED 1865-04-15 21:00:00 NR -22.6826 71.7917 main 1472 1472 _____P________ -1 -22.6826 71.7917 99 3 175
1865101S09076 1865 10 SI MM NOT_NAMED 1865-04-16 00:00:00 NR -22.8328 71.7940 main 1473 1473 _____P________ -1 -22.8328 71.7940 99 3 175
1865101S09076 1865 10 SI MM NOT_NAMED 1865-04-16 03:00:00 NR -22.9697 71.7968 main 1477 1477 _____P________ -1 -22.9697 71.7968 99 3 175
1865101S09076 1865 10 SI MM NOT_NAMED 1865-04-16 06:00:00 NR -23.1000 71.8000 reunion main 1478 _____O________ -1 -23.1000 71.8000 99 9.90000 3 173

IBTrACS Databaseについて

本データベースは、米国NOAAが公開する1842年以降の世界の熱帯低気圧のベストトラックデータアーカイブInternational Best Track Archive for Climate Stewardship (IBTrACS)を、ウェブで閲覧しやすい形式に変換したものです。

最終更新日:2021-12-06